This is the latest recevied weather packets stored in our database for station/object WA6ODQ-13. If no packets are shown the sender has not sent any weather packets the latest 10 day(s).
| Time | Temp. | Humidity | Pressure | Rain* | Wind** | Luminosity | Snow |
|---|---|---|---|---|---|---|---|
| 1778091938 | 23.33° C | 64% | 1018.9 hPa | 0 mm | - | 220 W/m² | - |
| 1778091635 | 22.78° C | 66% | 1018.7 hPa | 0 mm | - | 828 W/m² | - |
| 1778091333 | 22.22° C | 67% | 1018.8 hPa | 0 mm | - | 708 W/m² | - |
| 1778091029 | 21.11° C | 71% | 1018.8 hPa | 0 mm | - | 571 W/m² | - |
| 1778090726 | 21.11° C | 71% | 1018.9 hPa | 0 mm | - | 529 W/m² | - |
| 1778090422 | 20.56° C | 72% | 1018.9 hPa | 0 mm | - | 505 W/m² | - |
| 1778090119 | 20.56° C | 71% | 1018.9 hPa | 0 mm | - | 489 W/m² | - |
| 1778089815 | 21.11° C | 72% | 1018.8 hPa | 0 mm | - | 434 W/m² | - |
| 1778089514 | 21.11° C | 70% | 1019.2 hPa | 0 mm | - | 414 W/m² | - |
| 1778089210 | 20.56° C | 71% | 1019.1 hPa | 0 mm | - | 391 W/m² | - |
| 1778088908 | 20° C | 72% | 1019.1 hPa | 0 mm | - | 416 W/m² | - |
| 1778088604 | 20° C | 74% | 1018.8 hPa | 0 mm | - | 426 W/m² | - |
| 1778088302 | 19.44° C | 74% | 1019 hPa | 0 mm | - | 410 W/m² | - |
| 1778087998 | 18.89° C | 75% | 1018.8 hPa | 0 mm | - | 344 W/m² | - |
| 1778087695 | 19.44° C | 75% | 1018.7 hPa | 0 mm | - | 353 W/m² | - |
| 1778087393 | 19.44° C | 75% | 1018.8 hPa | 0 mm | - | 324 W/m² | - |
| 1778087089 | 18.89° C | 75% | 1018.8 hPa | 0 mm | - | 323 W/m² | - |
| 1778086788 | 18.89° C | 76% | 1018.9 hPa | 0 mm | - | 298 W/m² | - |
| 1778086486 | 18.33° C | 77% | 1018.8 hPa | 0 mm | - | 284 W/m² | - |
| 1778086182 | 18.33° C | 76% | 1018.9 hPa | 0 mm | - | 276 W/m² | - |
| 1778085879 | 17.78° C | 77% | 1018.8 hPa | 0 mm | - | 261 W/m² | - |
| 1778085577 | 17.78° C | 78% | 1018.9 hPa | 0 mm | - | 256 W/m² | - |
| 1778085271 | 17.78° C | 79% | 1018.7 hPa | 0 mm | - | 245 W/m² | - |
| 1778084966 | 17.22° C | 79% | 1018.7 hPa | 0 mm | - | 227 W/m² | - |
| 1778084664 | 16.67° C | 80% | 1018.8 hPa | 0 mm | - | 203 W/m² | - |
* Rain latest hour (hover to see other rain measurements)
** Current wind speed in m/s (hover to see current wind gust speed)